sensor_id;sensor_type;location;lat;lon;timestamp;P1;durP1;ratioP1;P2;durP2;ratioP2
1507;SDS011;745;48.586;10.032;2022-09-30T00:04:21;6.83;;;6.13;;
1507;SDS011;745;48.586;10.032;2022-09-30T00:08:52;6.47;;;5.87;;
1507;SDS011;745;48.586;10.032;2022-09-30T00:13:23;8.60;;;6.93;;
1507;SDS011;745;48.586;10.032;2022-09-30T00:17:54;8.37;;;7.03;;
1507;SDS011;745;48.586;10.032;2022-09-30T00:22:24;5.70;;;5.10;;
1507;SDS011;745;48.586;10.032;2022-09-30T00:26:55;8.00;;;6.90;;
1507;SDS011;745;48.586;10.032;2022-09-30T00:31:27;6.90;;;6.07;;
1507;SDS011;745;48.586;10.032;2022-09-30T00:35:59;5.63;;;5.10;;
1507;SDS011;745;48.586;10.032;2022-09-30T00:40:30;4.63;;;4.23;;
1507;SDS011;745;48.586;10.032;2022-09-30T00:45:03;5.27;;;4.77;;
1507;SDS011;745;48.586;10.032;2022-09-30T00:49:35;6.87;;;5.63;;
1507;SDS011;745;48.586;10.032;2022-09-30T00:54:08;6.00;;;4.87;;
1507;SDS011;745;48.586;10.032;2022-09-30T00:58:49;5.70;;;5.20;;
1507;SDS011;745;48.586;10.032;2022-09-30T01:03:20;6.27;;;5.30;;
1507;SDS011;745;48.586;10.032;2022-09-30T01:07:52;5.90;;;5.30;;
1507;SDS011;745;48.586;10.032;2022-09-30T01:12:25;5.00;;;4.50;;
1507;SDS011;745;48.586;10.032;2022-09-30T01:36:03;5.00;;;4.20;;
1507;SDS011;745;48.586;10.032;2022-09-30T01:45:26;6.57;;;5.23;;
1507;SDS011;745;48.586;10.032;2022-09-30T01:54:54;5.30;;;4.50;;
1507;SDS011;745;48.586;10.032;2022-09-30T01:59:34;4.50;;;4.10;;
1507;SDS011;745;48.586;10.032;2022-09-30T02:04:09;5.13;;;4.20;;
1507;SDS011;745;48.586;10.032;2022-09-30T02:08:47;5.37;;;4.80;;
1507;SDS011;745;48.586;10.032;2022-09-30T02:18:32;7.07;;;5.77;;
1507;SDS011;745;48.586;10.032;2022-09-30T02:23:13;7.17;;;5.67;;
1507;SDS011;745;48.586;10.032;2022-09-30T02:27:48;5.33;;;4.80;;
1507;SDS011;745;48.586;10.032;2022-09-30T02:32:32;7.30;;;5.60;;
1507;SDS011;745;48.586;10.032;2022-09-30T02:37:07;4.50;;;3.87;;
1507;SDS011;745;48.586;10.032;2022-09-30T02:41:43;5.90;;;4.80;;
1507;SDS011;745;48.586;10.032;2022-09-30T02:46:38;5.77;;;4.33;;
1507;SDS011;745;48.586;10.032;2022-09-30T02:51:18;6.63;;;5.13;;
1507;SDS011;745;48.586;10.032;2022-09-30T03:00:34;6.03;;;5.07;;
1507;SDS011;745;48.586;10.032;2022-09-30T03:05:05;8.30;;;5.73;;
1507;SDS011;745;48.586;10.032;2022-09-30T03:09:36;5.73;;;4.63;;
1507;SDS011;745;48.586;10.032;2022-09-30T03:14:17;5.97;;;4.87;;
1507;SDS011;745;48.586;10.032;2022-09-30T03:24:04;5.97;;;5.37;;
1507;SDS011;745;48.586;10.032;2022-09-30T03:29:12;8.17;;;6.10;;
1507;SDS011;745;48.586;10.032;2022-09-30T03:33:52;7.30;;;6.10;;
1507;SDS011;745;48.586;10.032;2022-09-30T03:43:32;4.97;;;4.23;;
1507;SDS011;745;48.586;10.032;2022-09-30T03:48:06;3.83;;;2.80;;
1507;SDS011;745;48.586;10.032;2022-09-30T03:52:38;3.77;;;3.47;;
1507;SDS011;745;48.586;10.032;2022-09-30T03:57:08;3.57;;;3.27;;
1507;SDS011;745;48.586;10.032;2022-09-30T04:01:40;3.23;;;2.93;;
1507;SDS011;745;48.586;10.032;2022-09-30T04:06:11;2.97;;;2.67;;
1507;SDS011;745;48.586;10.032;2022-09-30T04:10:43;2.80;;;2.60;;
1507;SDS011;745;48.586;10.032;2022-09-30T04:15:13;2.70;;;2.50;;
1507;SDS011;745;48.586;10.032;2022-09-30T04:19:44;3.50;;;3.20;;
1507;SDS011;745;48.586;10.032;2022-09-30T04:24:15;2.87;;;2.63;;
1507;SDS011;745;48.586;10.032;2022-09-30T04:28:45;2.67;;;2.47;;
1507;SDS011;745;48.586;10.032;2022-09-30T04:33:16;2.23;;;2.10;;
1507;SDS011;745;48.586;10.032;2022-09-30T04:37:46;2.60;;;2.40;;
1507;SDS011;745;48.586;10.032;2022-09-30T04:42:17;2.30;;;2.10;;
1507;SDS011;745;48.586;10.032;2022-09-30T04:46:47;2.07;;;1.83;;
1507;SDS011;745;48.586;10.032;2022-09-30T04:51:19;2.40;;;2.20;;
1507;SDS011;745;48.586;10.032;2022-09-30T04:55:50;2.73;;;2.00;;
1507;SDS011;745;48.586;10.032;2022-09-30T05:00:27;2.43;;;2.03;;
1507;SDS011;745;48.586;10.032;2022-09-30T05:04:58;2.00;;;1.80;;
1507;SDS011;745;48.586;10.032;2022-09-30T05:09:29;2.40;;;2.20;;
1507;SDS011;745;48.586;10.032;2022-09-30T05:14:00;2.43;;;2.23;;
1507;SDS011;745;48.586;10.032;2022-09-30T05:18:31;3.67;;;2.57;;
1507;SDS011;745;48.586;10.032;2022-09-30T05:23:03;4.27;;;3.10;;
1507;SDS011;745;48.586;10.032;2022-09-30T05:27:34;2.40;;;2.20;;
1507;SDS011;745;48.586;10.032;2022-09-30T05:32:05;3.03;;;2.30;;
1507;SDS011;745;48.586;10.032;2022-09-30T05:36:37;3.43;;;2.40;;
1507;SDS011;745;48.586;10.032;2022-09-30T05:41:08;2.30;;;2.10;;
1507;SDS011;745;48.586;10.032;2022-09-30T05:45:40;1.80;;;1.70;;
1507;SDS011;745;48.586;10.032;2022-09-30T05:50:11;2.60;;;1.93;;
1507;SDS011;745;48.586;10.032;2022-09-30T05:54:42;2.17;;;1.90;;
1507;SDS011;745;48.586;10.032;2022-09-30T05:59:12;2.43;;;2.23;;
1507;SDS011;745;48.586;10.032;2022-09-30T06:03:43;3.13;;;2.80;;
1507;SDS011;745;48.586;10.032;2022-09-30T06:08:14;5.73;;;5.23;;
1507;SDS011;745;48.586;10.032;2022-09-30T06:12:45;4.93;;;4.43;;
1507;SDS011;745;48.586;10.032;2022-09-30T06:17:16;4.97;;;4.40;;
1507;SDS011;745;48.586;10.032;2022-09-30T06:21:47;5.60;;;5.10;;
1507;SDS011;745;48.586;10.032;2022-09-30T06:26:18;4.83;;;4.43;;
1507;SDS011;745;48.586;10.032;2022-09-30T06:30:48;3.03;;;2.83;;
1507;SDS011;745;48.586;10.032;2022-09-30T06:35:19;3.07;;;2.80;;
1507;SDS011;745;48.586;10.032;2022-09-30T06:39:53;3.17;;;2.70;;
1507;SDS011;745;48.586;10.032;2022-09-30T06:44:23;2.60;;;2.40;;
1507;SDS011;745;48.586;10.032;2022-09-30T06:48:54;2.80;;;2.60;;
1507;SDS011;745;48.586;10.032;2022-09-30T06:53:26;2.60;;;2.40;;
1507;SDS011;745;48.586;10.032;2022-09-30T06:57:57;2.70;;;2.20;;
1507;SDS011;745;48.586;10.032;2022-09-30T07:02:27;2.30;;;2.10;;
1507;SDS011;745;48.586;10.032;2022-09-30T07:06:58;1.70;;;1.60;;
1507;SDS011;745;48.586;10.032;2022-09-30T07:11:28;2.10;;;1.70;;
1507;SDS011;745;48.586;10.032;2022-09-30T07:15:59;1.67;;;1.57;;
1507;SDS011;745;48.586;10.032;2022-09-30T07:20:30;2.13;;;1.93;;
1507;SDS011;745;48.586;10.032;2022-09-30T07:25:02;1.90;;;1.63;;
1507;SDS011;745;48.586;10.032;2022-09-30T07:29:33;2.83;;;2.13;;
1507;SDS011;745;48.586;10.032;2022-09-30T07:34:04;2.30;;;2.10;;
1507;SDS011;745;48.586;10.032;2022-09-30T07:38:39;2.80;;;1.90;;
1507;SDS011;745;48.586;10.032;2022-09-30T07:43:10;2.50;;;2.30;;
1507;SDS011;745;48.586;10.032;2022-09-30T07:47:42;2.57;;;2.37;;
1507;SDS011;745;48.586;10.032;2022-09-30T07:52:13;4.80;;;4.27;;
1507;SDS011;745;48.586;10.032;2022-09-30T07:56:44;4.17;;;3.70;;
1507;SDS011;745;48.586;10.032;2022-09-30T08:01:15;6.23;;;5.03;;
1507;SDS011;745;48.586;10.032;2022-09-30T08:05:45;5.07;;;4.53;;
1507;SDS011;745;48.586;10.032;2022-09-30T08:10:17;6.00;;;4.53;;
1507;SDS011;745;48.586;10.032;2022-09-30T08:14:48;7.10;;;4.30;;
1507;SDS011;745;48.586;10.032;2022-09-30T08:19:19;4.23;;;3.63;;
1507;SDS011;745;48.586;10.032;2022-09-30T08:23:51;5.20;;;4.30;;
1507;SDS011;745;48.586;10.032;2022-09-30T08:28:22;6.47;;;4.80;;
1507;SDS011;745;48.586;10.032;2022-09-30T08:32:53;5.17;;;4.07;;
1507;SDS011;745;48.586;10.032;2022-09-30T08:37:23;5.87;;;4.80;;
1507;SDS011;745;48.586;10.032;2022-09-30T08:41:58;6.30;;;4.57;;
1507;SDS011;745;48.586;10.032;2022-09-30T08:51:44;7.60;;;6.37;;
1507;SDS011;745;48.586;10.032;2022-09-30T08:56:21;10.33;;;7.17;;
1507;SDS011;745;48.586;10.032;2022-09-30T09:00:56;10.73;;;7.50;;
1507;SDS011;745;48.586;10.032;2022-09-30T09:10:14;12.20;;;8.20;;
1507;SDS011;745;48.586;10.032;2022-09-30T09:19:37;10.57;;;6.87;;
1507;SDS011;745;48.586;10.032;2022-09-30T09:24:18;9.00;;;7.50;;
1507;SDS011;745;48.586;10.032;2022-09-30T09:33:53;7.70;;;6.83;;
1507;SDS011;745;48.586;10.032;2022-09-30T09:38:30;10.90;;;8.77;;
1507;SDS011;745;48.586;10.032;2022-09-30T09:48:29;8.63;;;7.40;;
1507;SDS011;745;48.586;10.032;2022-09-30T09:53:14;12.63;;;9.00;;
1507;SDS011;745;48.586;10.032;2022-09-30T09:58:31;14.03;;;9.70;;
1507;SDS011;745;48.586;10.032;2022-09-30T10:03:02;13.83;;;9.80;;
1507;SDS011;745;48.586;10.032;2022-09-30T10:07:33;11.57;;;8.70;;
1507;SDS011;745;48.586;10.032;2022-09-30T10:16:35;11.80;;;9.50;;
1507;SDS011;745;48.586;10.032;2022-09-30T10:21:18;12.80;;;9.90;;
1507;SDS011;745;48.586;10.032;2022-09-30T10:25:54;13.93;;;10.00;;
1507;SDS011;745;48.586;10.032;2022-09-30T10:35:17;16.17;;;12.03;;
1507;SDS011;745;48.586;10.032;2022-09-30T10:40:01;12.17;;;9.60;;
1507;SDS011;745;48.586;10.032;2022-09-30T10:44:36;12.37;;;10.20;;
1507;SDS011;745;48.586;10.032;2022-09-30T10:49:22;12.13;;;10.50;;
1507;SDS011;745;48.586;10.032;2022-09-30T10:53:57;11.10;;;9.70;;
1507;SDS011;745;48.586;10.032;2022-09-30T10:58:42;13.30;;;10.37;;
1507;SDS011;745;48.586;10.032;2022-09-30T11:03:17;14.97;;;10.67;;
1507;SDS011;745;48.586;10.032;2022-09-30T11:12:43;11.27;;;9.73;;
1507;SDS011;745;48.586;10.032;2022-09-30T11:17:37;12.00;;;10.13;;
1507;SDS011;745;48.586;10.032;2022-09-30T11:22:49;11.47;;;9.50;;
1507;SDS011;745;48.586;10.032;2022-09-30T11:27:48;12.23;;;10.40;;
1507;SDS011;745;48.586;10.032;2022-09-30T11:57:30;14.87;;;12.30;;
1507;SDS011;745;48.586;10.032;2022-09-30T12:02:13;12.50;;;9.83;;
1507;SDS011;745;48.586;10.032;2022-09-30T12:07:16;11.80;;;9.57;;
1507;SDS011;745;48.586;10.032;2022-09-30T12:11:50;10.50;;;9.10;;
1507;SDS011;745;48.586;10.032;2022-09-30T12:16:27;11.50;;;10.37;;
1507;SDS011;745;48.586;10.032;2022-09-30T12:21:00;11.27;;;9.47;;
1507;SDS011;745;48.586;10.032;2022-09-30T12:25:40;10.63;;;9.30;;
1507;SDS011;745;48.586;10.032;2022-09-30T12:30:15;13.60;;;10.40;;
1507;SDS011;745;48.586;10.032;2022-09-30T12:49:18;11.07;;;9.00;;
1507;SDS011;745;48.586;10.032;2022-09-30T12:53:55;9.57;;;8.43;;
1507;SDS011;745;48.586;10.032;2022-09-30T12:58:50;7.50;;;6.80;;
1507;SDS011;745;48.586;10.032;2022-09-30T13:03:21;11.03;;;8.90;;
1507;SDS011;745;48.586;10.032;2022-09-30T13:12:43;10.93;;;8.73;;
1507;SDS011;745;48.586;10.032;2022-09-30T13:21:46;11.90;;;10.00;;
1507;SDS011;745;48.586;10.032;2022-09-30T13:31:10;11.13;;;9.70;;
1507;SDS011;745;48.586;10.032;2022-09-30T13:40:20;12.83;;;10.83;;
1507;SDS011;745;48.586;10.032;2022-09-30T13:49:39;9.20;;;7.90;;
1507;SDS011;745;48.586;10.032;2022-09-30T13:54:17;8.70;;;7.80;;
1507;SDS011;745;48.586;10.032;2022-09-30T13:59:08;10.47;;;9.13;;
1507;SDS011;745;48.586;10.032;2022-09-30T14:24:36;9.53;;;8.50;;
1507;SDS011;745;48.586;10.032;2022-09-30T14:29:17;11.43;;;10.23;;
1507;SDS011;745;48.586;10.032;2022-09-30T14:33:51;9.83;;;8.83;;
1507;SDS011;745;48.586;10.032;2022-09-30T14:38:22;13.10;;;10.77;;
1507;SDS011;745;48.586;10.032;2022-09-30T14:42:58;9.37;;;8.13;;
1507;SDS011;745;48.586;10.032;2022-09-30T14:47:32;8.47;;;7.10;;
1507;SDS011;745;48.586;10.032;2022-09-30T14:52:30;11.10;;;8.70;;
1507;SDS011;745;48.586;10.032;2022-09-30T14:57:12;11.57;;;9.30;;
1507;SDS011;745;48.586;10.032;2022-09-30T15:01:45;8.27;;;7.10;;
1507;SDS011;745;48.586;10.032;2022-09-30T15:06:18;9.90;;;7.67;;
1507;SDS011;745;48.586;10.032;2022-09-30T15:10:51;8.83;;;7.67;;
1507;SDS011;745;48.586;10.032;2022-09-30T15:15:36;11.90;;;9.83;;
1507;SDS011;745;48.586;10.032;2022-09-30T15:20:29;10.57;;;8.60;;
1507;SDS011;745;48.586;10.032;2022-09-30T15:25:01;10.70;;;9.10;;
1507;SDS011;745;48.586;10.032;2022-09-30T15:29:33;9.97;;;8.70;;
1507;SDS011;745;48.586;10.032;2022-09-30T15:34:11;10.73;;;9.10;;
1507;SDS011;745;48.586;10.032;2022-09-30T15:38:46;10.53;;;8.83;;
1507;SDS011;745;48.586;10.032;2022-09-30T15:43:35;10.03;;;8.97;;
1507;SDS011;745;48.586;10.032;2022-09-30T15:52:56;12.67;;;10.13;;
1507;SDS011;745;48.586;10.032;2022-09-30T15:57:39;15.80;;;11.57;;
1507;SDS011;745;48.586;10.032;2022-09-30T16:02:16;11.20;;;9.13;;
1507;SDS011;745;48.586;10.032;2022-09-30T16:06:47;13.83;;;10.23;;
1507;SDS011;745;48.586;10.032;2022-09-30T16:11:22;15.13;;;11.43;;
1507;SDS011;745;48.586;10.032;2022-09-30T16:15:56;18.20;;;13.70;;
1507;SDS011;745;48.586;10.032;2022-09-30T16:20:27;16.73;;;11.73;;
1507;SDS011;745;48.586;10.032;2022-09-30T16:29:57;20.57;;;14.83;;
1507;SDS011;745;48.586;10.032;2022-09-30T16:34:36;17.53;;;12.00;;
1507;SDS011;745;48.586;10.032;2022-09-30T16:39:08;15.63;;;11.20;;
1507;SDS011;745;48.586;10.032;2022-09-30T16:43:41;15.63;;;11.13;;
1507;SDS011;745;48.586;10.032;2022-09-30T16:48:15;15.50;;;9.77;;
1507;SDS011;745;48.586;10.032;2022-09-30T16:52:47;11.63;;;8.73;;
1507;SDS011;745;48.586;10.032;2022-09-30T16:57:19;10.03;;;8.10;;
1507;SDS011;745;48.586;10.032;2022-09-30T17:01:51;12.67;;;9.37;;
1507;SDS011;745;48.586;10.032;2022-09-30T17:06:28;11.87;;;8.90;;
1507;SDS011;745;48.586;10.032;2022-09-30T17:11:00;13.97;;;10.53;;
1507;SDS011;745;48.586;10.032;2022-09-30T17:15:32;13.30;;;9.93;;
1507;SDS011;745;48.586;10.032;2022-09-30T17:20:06;10.67;;;8.00;;
1507;SDS011;745;48.586;10.032;2022-09-30T17:24:38;9.47;;;7.80;;
1507;SDS011;745;48.586;10.032;2022-09-30T17:29:08;13.47;;;10.07;;
1507;SDS011;745;48.586;10.032;2022-09-30T17:33:40;12.17;;;10.00;;
1507;SDS011;745;48.586;10.032;2022-09-30T17:38:11;14.60;;;10.17;;
1507;SDS011;745;48.586;10.032;2022-09-30T17:42:42;12.97;;;9.27;;
1507;SDS011;745;48.586;10.032;2022-09-30T17:47:31;13.27;;;10.37;;
1507;SDS011;745;48.586;10.032;2022-09-30T17:52:02;15.17;;;11.10;;
1507;SDS011;745;48.586;10.032;2022-09-30T17:56:33;16.30;;;12.30;;
1507;SDS011;745;48.586;10.032;2022-09-30T18:01:07;16.50;;;12.20;;
1507;SDS011;745;48.586;10.032;2022-09-30T18:05:38;18.00;;;12.97;;
1507;SDS011;745;48.586;10.032;2022-09-30T18:10:09;16.77;;;11.70;;
1507;SDS011;745;48.586;10.032;2022-09-30T18:14:40;22.70;;;16.00;;
1507;SDS011;745;48.586;10.032;2022-09-30T18:19:12;56.73;;;35.10;;
1507;SDS011;745;48.586;10.032;2022-09-30T18:23:44;59.27;;;36.90;;
1507;SDS011;745;48.586;10.032;2022-09-30T18:28:14;53.07;;;33.07;;
1507;SDS011;745;48.586;10.032;2022-09-30T18:32:46;45.03;;;28.00;;
1507;SDS011;745;48.586;10.032;2022-09-30T18:37:21;37.50;;;25.00;;
1507;SDS011;745;48.586;10.032;2022-09-30T18:41:52;32.50;;;22.67;;
1507;SDS011;745;48.586;10.032;2022-09-30T18:46:23;30.80;;;21.03;;
1507;SDS011;745;48.586;10.032;2022-09-30T18:50:53;34.13;;;21.73;;
1507;SDS011;745;48.586;10.032;2022-09-30T18:55:24;35.70;;;23.10;;
1507;SDS011;745;48.586;10.032;2022-09-30T18:59:54;36.80;;;22.80;;
1507;SDS011;745;48.586;10.032;2022-09-30T19:04:25;36.07;;;22.57;;
1507;SDS011;745;48.586;10.032;2022-09-30T19:08:55;29.50;;;20.17;;
1507;SDS011;745;48.586;10.032;2022-09-30T19:13:26;28.53;;;18.53;;
1507;SDS011;745;48.586;10.032;2022-09-30T19:17:57;32.33;;;20.77;;
1507;SDS011;745;48.586;10.032;2022-09-30T19:22:28;26.83;;;17.20;;
1507;SDS011;745;48.586;10.032;2022-09-30T19:26:58;19.93;;;14.53;;
1507;SDS011;745;48.586;10.032;2022-09-30T19:31:29;22.93;;;15.53;;
1507;SDS011;745;48.586;10.032;2022-09-30T19:36:01;23.53;;;16.07;;
1507;SDS011;745;48.586;10.032;2022-09-30T19:40:32;21.83;;;15.40;;
1507;SDS011;745;48.586;10.032;2022-09-30T19:45:04;23.83;;;16.83;;
1507;SDS011;745;48.586;10.032;2022-09-30T19:49:35;23.43;;;16.03;;
1507;SDS011;745;48.586;10.032;2022-09-30T19:54:06;19.20;;;14.80;;
1507;SDS011;745;48.586;10.032;2022-09-30T19:58:38;23.03;;;15.07;;
1507;SDS011;745;48.586;10.032;2022-09-30T20:03:10;23.13;;;15.03;;
1507;SDS011;745;48.586;10.032;2022-09-30T20:07:41;26.23;;;15.97;;
1507;SDS011;745;48.586;10.032;2022-09-30T20:12:12;19.30;;;12.93;;
1507;SDS011;745;48.586;10.032;2022-09-30T20:16:44;19.17;;;12.90;;
1507;SDS011;745;48.586;10.032;2022-09-30T20:21:17;23.63;;;14.17;;
1507;SDS011;745;48.586;10.032;2022-09-30T20:25:47;21.63;;;13.90;;
1507;SDS011;745;48.586;10.032;2022-09-30T20:30:20;18.23;;;11.90;;
1507;SDS011;745;48.586;10.032;2022-09-30T20:34:50;16.97;;;11.07;;
1507;SDS011;745;48.586;10.032;2022-09-30T20:39:21;17.43;;;12.10;;
1507;SDS011;745;48.586;10.032;2022-09-30T20:43:52;14.23;;;9.50;;
1507;SDS011;745;48.586;10.032;2022-09-30T20:48:23;16.20;;;10.47;;
1507;SDS011;745;48.586;10.032;2022-09-30T20:52:53;25.47;;;14.10;;
1507;SDS011;745;48.586;10.032;2022-09-30T20:57:27;27.60;;;16.00;;
1507;SDS011;745;48.586;10.032;2022-09-30T21:02:01;22.10;;;13.97;;
1507;SDS011;745;48.586;10.032;2022-09-30T21:06:32;18.57;;;12.77;;
1507;SDS011;745;48.586;10.032;2022-09-30T21:11:03;14.70;;;10.60;;
1507;SDS011;745;48.586;10.032;2022-09-30T21:15:37;15.07;;;10.00;;
1507;SDS011;745;48.586;10.032;2022-09-30T21:20:08;13.60;;;10.27;;
1507;SDS011;745;48.586;10.032;2022-09-30T21:24:39;13.17;;;9.37;;
1507;SDS011;745;48.586;10.032;2022-09-30T21:29:09;12.90;;;8.67;;
1507;SDS011;745;48.586;10.032;2022-09-30T21:33:40;16.33;;;10.83;;
1507;SDS011;745;48.586;10.032;2022-09-30T21:38:11;24.30;;;14.20;;
1507;SDS011;745;48.586;10.032;2022-09-30T21:42:45;50.77;;;27.53;;
1507;SDS011;745;48.586;10.032;2022-09-30T21:47:16;43.20;;;24.27;;
1507;SDS011;745;48.586;10.032;2022-09-30T21:51:47;48.27;;;25.80;;
1507;SDS011;745;48.586;10.032;2022-09-30T21:56:18;36.10;;;21.40;;
1507;SDS011;745;48.586;10.032;2022-09-30T22:00:49;30.63;;;19.30;;
1507;SDS011;745;48.586;10.032;2022-09-30T22:05:20;26.60;;;16.40;;
1507;SDS011;745;48.586;10.032;2022-09-30T22:09:51;27.03;;;16.00;;
1507;SDS011;745;48.586;10.032;2022-09-30T22:14:22;23.00;;;14.30;;
1507;SDS011;745;48.586;10.032;2022-09-30T22:18:53;19.50;;;12.10;;
1507;SDS011;745;48.586;10.032;2022-09-30T22:23:24;35.50;;;18.83;;
1507;SDS011;745;48.586;10.032;2022-09-30T22:27:55;43.23;;;20.63;;
1507;SDS011;745;48.586;10.032;2022-09-30T22:32:26;49.90;;;20.67;;
1507;SDS011;745;48.586;10.032;2022-09-30T22:36:57;38.60;;;19.53;;
1507;SDS011;745;48.586;10.032;2022-09-30T22:41:51;38.43;;;18.90;;
1507;SDS011;745;48.586;10.032;2022-09-30T22:46:23;32.83;;;18.10;;
1507;SDS011;745;48.586;10.032;2022-09-30T22:50:53;34.80;;;18.67;;
1507;SDS011;745;48.586;10.032;2022-09-30T22:55:24;28.80;;;16.00;;
1507;SDS011;745;48.586;10.032;2022-09-30T22:59:55;25.83;;;15.97;;
1507;SDS011;745;48.586;10.032;2022-09-30T23:04:28;24.90;;;15.23;;
1507;SDS011;745;48.586;10.032;2022-09-30T23:09:02;21.50;;;14.53;;
1507;SDS011;745;48.586;10.032;2022-09-30T23:13:34;23.67;;;15.20;;
1507;SDS011;745;48.586;10.032;2022-09-30T23:18:05;20.13;;;12.67;;
1507;SDS011;745;48.586;10.032;2022-09-30T23:22:35;17.07;;;11.83;;
1507;SDS011;745;48.586;10.032;2022-09-30T23:27:06;15.13;;;10.77;;
1507;SDS011;745;48.586;10.032;2022-09-30T23:31:37;23.07;;;15.60;;
1507;SDS011;745;48.586;10.032;2022-09-30T23:36:08;15.60;;;11.27;;
1507;SDS011;745;48.586;10.032;2022-09-30T23:40:45;13.63;;;9.63;;
1507;SDS011;745;48.586;10.032;2022-09-30T23:45:17;14.57;;;10.17;;
1507;SDS011;745;48.586;10.032;2022-09-30T23:49:47;18.97;;;12.70;;
1507;SDS011;745;48.586;10.032;2022-09-30T23:54:19;18.73;;;13.13;;
1507;SDS011;745;48.586;10.032;2022-09-30T23:58:50;15.20;;;9.63;;
